createdAt,value
2018-05-23T03:02:38.013Z,45.80
2018-05-23T03:05:06.845Z,35.03
2018-05-23T03:07:35.658Z,36.77
2018-05-23T03:10:04.649Z,29.47
2018-05-23T03:12:32.694Z,28.80
2018-05-23T03:15:00.734Z,32.73
2018-05-23T03:17:28.946Z,27.10
2018-05-23T03:19:56.981Z,41.80
2018-05-23T03:22:25.044Z,29.27
2018-05-23T03:24:53.373Z,27.60
2018-05-23T03:27:21.615Z,31.37
2018-05-23T03:29:49.658Z,31.43
2018-05-23T03:32:17.894Z,29.67
2018-05-23T03:34:46.701Z,37.03
2018-05-23T03:37:14.755Z,32.30
2018-05-23T03:39:42.913Z,36.27
2018-05-23T03:42:10.974Z,25.53
2018-05-23T03:44:39.016Z,30.23
2018-05-23T03:47:07.297Z,28.17
2018-05-23T03:49:35.346Z,40.30
2018-05-23T03:52:03.481Z,30.60
2018-05-23T03:54:31.550Z,28.50
2018-05-23T03:56:59.598Z,29.03
2018-05-23T04:02:43.341Z,25.30
2018-05-23T04:05:23.298Z,25.93
2018-05-23T04:07:51.334Z,24.53
2018-05-23T04:10:19.391Z,24.10
2018-05-23T04:12:48.224Z,24.27
2018-05-23T04:15:16.275Z,23.47
2018-05-23T04:17:44.316Z,19.33
2018-05-23T04:20:12.385Z,20.57
2018-05-23T04:22:40.434Z,21.93
2018-05-23T04:25:08.489Z,22.60
2018-05-23T04:27:36.912Z,20.27
2018-05-23T04:30:04.972Z,27.67
2018-05-23T04:32:33.013Z,21.90
2018-05-23T04:35:01.095Z,23.07
2018-05-23T04:37:29.141Z,24.07
2018-05-23T04:39:57.436Z,21.50
2018-05-23T04:42:25.717Z,26.30
2018-05-23T04:44:53.781Z,28.63
2018-05-23T04:47:21.833Z,24.47
2018-05-23T04:49:49.908Z,25.13
2018-05-23T04:52:17.970Z,26.30
2018-05-23T04:54:46.015Z,22.27
2018-05-23T04:57:14.180Z,26.57
2018-05-23T04:59:42.188Z,36.83
2018-05-23T18:02:39.423Z,2.50
2018-05-23T18:05:07.470Z,2.57
2018-05-23T18:07:35.509Z,2.67
2018-05-23T18:10:04.846Z,2.90
2018-05-23T18:12:32.889Z,2.70
2018-05-23T18:15:00.961Z,2.90
2018-05-23T18:17:29.455Z,3.60
2018-05-23T18:19:57.554Z,3.70
2018-05-23T18:22:25.621Z,3.77
2018-05-23T18:24:53.910Z,3.40
2018-05-23T18:27:21.949Z,2.57
2018-05-23T18:29:49.993Z,3.00
2018-05-23T18:32:18.437Z,2.57
2018-05-23T18:34:46.475Z,2.67
2018-05-23T18:37:14.577Z,2.73
2018-05-23T18:39:43.010Z,2.40
2018-05-23T18:42:11.067Z,2.90
2018-05-23T18:44:39.873Z,2.30
2018-05-23T18:49:40.189Z,2.90
2018-05-23T18:52:09.743Z,2.87
2018-05-23T18:54:37.793Z,2.87
2018-05-23T18:57:05.837Z,3.00
2018-05-23T18:59:33.915Z,2.97
2018-05-23T19:02:01.974Z,3.00
2018-05-23T19:04:30.141Z,3.10
2018-05-23T19:06:58.326Z,3.00
2018-05-23T19:09:27.153Z,2.90
2018-05-23T19:11:55.239Z,3.10
2018-05-23T19:14:23.427Z,2.70
2018-05-23T19:16:52.716Z,2.70
2018-05-23T19:19:20.782Z,2.67
2018-05-23T19:21:49.095Z,3.00
2018-05-23T19:24:17.169Z,3.10
2018-05-23T19:26:45.211Z,3.10
2018-05-23T19:29:13.294Z,3.10
2018-05-23T19:31:41.343Z,3.20
2018-05-23T19:34:09.416Z,3.10
2018-05-23T19:36:37.646Z,2.97
2018-05-23T19:39:05.779Z,3.40
2018-05-23T19:41:33.833Z,2.80
2018-05-23T19:44:01.909Z,3.60
2018-05-23T19:46:29.979Z,3.50
2018-05-23T19:48:58.034Z,3.80
2018-05-23T19:51:27.156Z,3.50
2018-05-23T19:53:55.215Z,3.23
2018-05-23T19:56:23.254Z,3.57
2018-05-23T19:58:52.324Z,3.57
